createdAt,value
2016-12-24T00:00:08.910Z,0
2016-12-24T00:01:08.928Z,0
2016-12-24T00:02:23.866Z,0
2016-12-24T00:03:23.877Z,0
2016-12-24T00:04:23.893Z,0
2016-12-24T00:06:09.007Z,0
2016-12-24T00:07:23.944Z,0
2016-12-24T00:09:09.057Z,0
2016-12-24T00:10:09.069Z,0
2016-12-24T00:11:09.090Z,0
2016-12-24T00:12:24.019Z,0
2016-12-24T00:13:09.117Z,0
2016-12-24T00:14:09.136Z,0
2016-12-24T00:15:09.147Z,0
2016-12-24T00:16:09.175Z,0
2016-12-24T00:17:24.099Z,0
2016-12-24T00:18:09.194Z,0
2016-12-24T00:19:09.212Z,0
2016-12-24T00:20:09.230Z,0
2016-12-24T00:21:09.243Z,0
2016-12-24T00:22:09.261Z,0
2016-12-24T00:23:24.192Z,0
2016-12-24T00:24:09.298Z,0
2016-12-24T00:25:09.305Z,0
2016-12-24T00:26:09.326Z,0
2016-12-24T00:27:24.254Z,0
2016-12-24T00:28:09.453Z,0
2016-12-24T00:29:09.369Z,0
2016-12-24T00:30:09.385Z,0
2016-12-24T00:31:09.405Z,0
2016-12-24T00:32:09.445Z,0
2016-12-24T00:33:09.428Z,0
2016-12-24T00:35:09.463Z,0
2016-12-24T00:36:09.485Z,0
2016-12-24T00:37:09.494Z,0
2016-12-24T00:38:09.514Z,0
2016-12-24T00:39:09.527Z,0
2016-12-24T00:40:24.460Z,0
2016-12-24T00:41:09.560Z,0
2016-12-24T00:42:09.575Z,0
2016-12-24T00:43:09.588Z,0
2016-12-24T00:44:09.603Z,0
2016-12-24T00:45:09.619Z,0
2016-12-24T00:46:09.635Z,0
2016-12-24T00:47:09.656Z,0
2016-12-24T00:48:09.667Z,0
2016-12-24T00:49:24.603Z,0
2016-12-24T00:50:24.618Z,0
2016-12-24T00:51:09.713Z,0
2016-12-24T00:52:09.735Z,0
2016-12-24T00:53:09.748Z,0
2016-12-24T00:54:09.763Z,0
2016-12-24T00:55:09.779Z,0
2016-12-24T00:56:24.708Z,0
2016-12-24T00:57:09.814Z,0
2016-12-24T00:58:09.823Z,0
2016-12-24T00:59:24.756Z,0
2016-12-24T01:00:09.851Z,0
2016-12-24T01:01:09.870Z,0
2016-12-24T01:02:09.886Z,0
2016-12-24T01:03:09.902Z,0
2016-12-24T01:04:09.916Z,0
2016-12-24T01:05:09.934Z,0
2016-12-24T01:06:09.947Z,0
2016-12-24T01:07:09.961Z,0
2016-12-24T01:09:09.992Z,0
2016-12-24T01:10:10.014Z,0
2016-12-24T01:11:10.026Z,0
2016-12-24T01:13:10.056Z,0
2016-12-24T01:14:10.072Z,0
2016-12-24T01:15:25.008Z,0
2016-12-24T01:16:10.101Z,0
2016-12-24T01:17:10.147Z,0
2016-12-24T01:18:10.137Z,0
2016-12-24T01:19:10.147Z,0
2016-12-24T01:20:10.163Z,0
2016-12-24T01:21:25.099Z,0
2016-12-24T01:22:10.198Z,0
2016-12-24T01:23:10.211Z,0
2016-12-24T01:24:10.227Z,0
2016-12-24T01:25:10.242Z,0
2016-12-24T01:26:10.263Z,0
2016-12-24T01:27:10.272Z,0
2016-12-24T01:28:10.287Z,0
2016-12-24T01:29:10.306Z,0
2016-12-24T01:30:10.320Z,0
2016-12-24T01:31:25.251Z,0
2016-12-24T01:32:10.353Z,0
2016-12-24T01:33:10.368Z,0
2016-12-24T01:34:10.383Z,0
2016-12-24T01:35:10.396Z,0
2016-12-24T01:36:25.332Z,0
2016-12-24T01:37:10.430Z,0
2016-12-24T01:38:25.361Z,0
2016-12-24T01:39:10.459Z,0
2016-12-24T01:40:10.474Z,0
2016-12-24T01:41:10.813Z,0
2016-12-24T01:42:10.503Z,0
2016-12-24T01:43:10.522Z,0
2016-12-24T01:44:10.539Z,0
2016-12-24T01:45:10.551Z,0
2016-12-24T01:46:10.568Z,0
2016-12-24T01:47:25.500Z,0
2016-12-24T01:48:10.600Z,0
2016-12-24T01:49:10.618Z,0
2016-12-24T01:50:10.631Z,0
2016-12-24T01:51:10.644Z,0
2016-12-24T01:52:10.662Z,0
2016-12-24T01:53:10.675Z,0
2016-12-24T01:54:10.693Z,0
2016-12-24T01:55:25.630Z,0
2016-12-24T01:57:10.736Z,0
2016-12-24T01:58:10.753Z,0
2016-12-24T02:00:10.783Z,0
2016-12-24T02:01:10.801Z,0
2016-12-24T02:02:25.731Z,0
2016-12-24T02:03:10.836Z,0
2016-12-24T02:04:10.850Z,0
2016-12-24T02:05:10.863Z,0
2016-12-24T02:06:10.879Z,0
2016-12-24T02:07:10.893Z,0
2016-12-24T02:08:10.965Z,0
2016-12-24T02:09:25.842Z,0
2016-12-24T02:10:10.941Z,0
2016-12-24T02:11:11.255Z,0
2016-12-24T02:12:10.973Z,0
2016-12-24T02:13:10.984Z,0
2016-12-24T02:14:25.918Z,0
2016-12-24T02:15:11.015Z,0
2016-12-24T02:16:11.038Z,0
2016-12-24T02:17:11.050Z,0
2016-12-24T02:18:11.063Z,0
2016-12-24T02:19:11.079Z,0
2016-12-24T02:20:11.400Z,0
2016-12-24T02:21:11.110Z,0
2016-12-24T02:22:11.131Z,0
2016-12-24T02:23:11.142Z,0
2016-12-24T02:24:11.154Z,0
2016-12-24T02:25:11.176Z,0
2016-12-24T02:27:11.204Z,0
2016-12-24T02:28:11.221Z,0
2016-12-24T02:29:11.234Z,0
2016-12-24T02:30:11.246Z,0
2016-12-24T02:31:11.266Z,0
2016-12-24T02:32:11.282Z,0
2016-12-24T02:33:11.295Z,0
2016-12-24T02:34:26.231Z,0
2016-12-24T02:35:11.326Z,0
2016-12-24T02:36:11.343Z,0
2016-12-24T02:37:11.359Z,0
2016-12-24T02:38:26.294Z,0
2016-12-24T02:39:11.388Z,0
2016-12-24T02:40:26.323Z,0
2016-12-24T02:41:11.422Z,0
2016-12-24T02:42:11.435Z,0
2016-12-24T02:43:11.452Z,0
2016-12-24T02:44:11.469Z,0
2016-12-24T02:45:26.402Z,0
2016-12-24T02:46:11.498Z,0
2016-12-24T02:47:11.515Z,0
2016-12-24T02:48:11.529Z,0
2016-12-24T02:49:11.552Z,0
2016-12-24T02:50:26.478Z,0
2016-12-24T02:51:11.578Z,0
2016-12-24T02:52:11.593Z,0
2016-12-24T02:53:11.609Z,0
2016-12-24T02:54:11.623Z,0
2016-12-24T02:55:11.641Z,0
2016-12-24T02:56:11.656Z,0
2016-12-24T02:57:11.670Z,0
2016-12-24T02:58:11.688Z,0
2016-12-24T02:59:26.619Z,0
2016-12-24T03:00:11.727Z,0
2016-12-24T03:01:26.654Z,0
2016-12-24T03:02:26.670Z,0
2016-12-24T03:03:11.766Z,0
2016-12-24T03:04:11.783Z,0
2016-12-24T03:05:12.104Z,0
2016-12-24T03:06:26.735Z,0
2016-12-24T03:07:11.832Z,0
2016-12-24T03:08:11.851Z,0
2016-12-24T03:09:11.862Z,0
2016-12-24T03:10:26.799Z,0
2016-12-24T03:11:11.891Z,0
2016-12-24T03:12:11.914Z,0
2016-12-24T03:13:11.929Z,0
2016-12-24T03:14:12.092Z,0
2016-12-24T03:15:11.959Z,0
2016-12-24T03:17:12.014Z,0
2016-12-24T03:19:12.024Z,0
2016-12-24T03:20:12.037Z,0
2016-12-24T03:22:26.986Z,0
2016-12-24T03:23:12.085Z,0
2016-12-24T03:24:12.101Z,0
2016-12-24T03:25:12.115Z,0
2016-12-24T03:26:12.133Z,0
2016-12-24T03:27:12.477Z,0
2016-12-24T03:28:12.160Z,0
2016-12-24T03:29:12.182Z,0
2016-12-24T03:30:27.113Z,0
2016-12-24T03:31:12.210Z,0
2016-12-24T03:32:27.150Z,0
2016-12-24T03:33:27.162Z,0
2016-12-24T03:34:12.262Z,0
2016-12-24T03:35:12.279Z,0
2016-12-24T03:36:12.295Z,0
2016-12-24T03:37:27.227Z,0
2016-12-24T03:38:12.328Z,0
2016-12-24T03:39:12.341Z,0
2016-12-24T03:40:12.356Z,0
2016-12-24T03:41:12.374Z,0
2016-12-24T03:42:12.715Z,0
2016-12-24T03:43:12.410Z,0
2016-12-24T03:44:12.422Z,0
2016-12-24T03:45:12.439Z,0
2016-12-24T03:46:12.455Z,0
2016-12-24T03:49:12.504Z,0
2016-12-24T03:50:12.519Z,0
2016-12-24T03:51:12.534Z,0
2016-12-24T03:52:12.549Z,0
2016-12-24T03:53:12.572Z,0
2016-12-24T03:54:12.581Z,0
2016-12-24T03:55:12.597Z,0
2016-12-24T03:56:12.615Z,0
2016-12-24T03:57:12.628Z,0
2016-12-24T03:58:12.675Z,0
2016-12-24T03:59:12.662Z,0
2016-12-24T04:00:12.678Z,0
2016-12-24T04:01:12.698Z,0
2016-12-24T04:02:12.712Z,0
2016-12-24T04:03:12.728Z,0
2016-12-24T04:04:12.744Z,0
2016-12-24T04:05:12.763Z,0
2016-12-24T04:06:12.780Z,0
2016-12-24T04:07:12.797Z,0
2016-12-24T04:08:12.810Z,0
2016-12-24T04:09:27.746Z,0
2016-12-24T04:10:12.843Z,0
2016-12-24T04:11:12.856Z,0
2016-12-24T04:12:12.870Z,0
2016-12-24T04:13:12.890Z,0
2016-12-24T04:14:27.824Z,0
2016-12-24T04:15:12.918Z,0
2016-12-24T04:16:12.945Z,0
2016-12-24T04:17:12.952Z,0
2016-12-24T04:18:12.970Z,0
2016-12-24T04:20:27.923Z,0
2016-12-24T04:22:13.344Z,0
2016-12-24T04:23:13.053Z,0
2016-12-24T04:24:13.066Z,0
2016-12-24T04:25:28.004Z,0
2016-12-24T04:26:13.098Z,0
2016-12-24T04:27:13.118Z,0
2016-12-24T04:28:13.131Z,0
2016-12-24T04:29:13.149Z,0
2016-12-24T04:30:13.197Z,0
2016-12-24T04:31:13.181Z,0
2016-12-24T04:32:28.115Z,0
2016-12-24T04:33:13.216Z,0
2016-12-24T04:34:13.248Z,0
2016-12-24T04:35:13.246Z,0
2016-12-24T04:36:28.180Z,0
2016-12-24T04:37:28.195Z,0
2016-12-24T04:38:13.296Z,0
2016-12-24T04:39:13.310Z,0
2016-12-24T04:40:13.327Z,0
2016-12-24T04:41:28.259Z,0
2016-12-24T04:42:13.358Z,0
2016-12-24T04:43:13.374Z,0
2016-12-24T04:44:13.696Z,0
2016-12-24T04:45:13.405Z,0
2016-12-24T04:46:13.425Z,0
2016-12-24T04:47:13.438Z,0
2016-12-24T04:48:13.458Z,0
2016-12-24T04:49:28.390Z,0
2016-12-24T04:50:13.497Z,0
2016-12-24T04:51:13.503Z,0
2016-12-24T04:52:13.523Z,0
2016-12-24T04:53:13.540Z,0
2016-12-24T04:54:13.562Z,0
2016-12-24T04:55:13.875Z,0
2016-12-24T04:56:13.588Z,0
2016-12-24T04:57:28.520Z,0
2016-12-24T04:58:13.618Z,0
2016-12-24T04:59:13.639Z,0
2016-12-24T05:00:13.654Z,0
2016-12-24T05:01:13.668Z,0
2016-12-24T05:02:13.685Z,0
2016-12-24T05:03:13.705Z,0
2016-12-24T05:04:13.719Z,0
2016-12-24T05:05:13.736Z,0
2016-12-24T05:06:13.752Z,0
2016-12-24T05:07:13.766Z,0
2016-12-24T05:08:13.789Z,0
2016-12-24T05:09:13.801Z,0
2016-12-24T05:10:13.816Z,0
2016-12-24T05:11:13.833Z,0
2016-12-24T05:12:28.773Z,0
2016-12-24T05:13:13.865Z,0
2016-12-24T05:14:13.891Z,0
2016-12-24T05:15:13.902Z,0
2016-12-24T05:16:13.918Z,0
2016-12-24T05:17:13.939Z,0
2016-12-24T05:18:13.948Z,0
2016-12-24T05:19:28.887Z,0
2016-12-24T05:20:13.980Z,0
2016-12-24T05:21:14.000Z,0
2016-12-24T05:22:14.017Z,0
2016-12-24T05:23:14.034Z,0
2016-12-24T05:24:14.052Z,0
2016-12-24T05:25:14.067Z,0
2016-12-24T05:26:14.081Z,0
2016-12-24T05:27:14.100Z,0
2016-12-24T05:28:14.121Z,0
2016-12-24T05:29:14.134Z,0
2016-12-24T05:30:14.252Z,0
2016-12-24T05:31:14.166Z,0
2016-12-24T05:32:14.183Z,0
2016-12-24T05:33:14.198Z,0
2016-12-24T05:34:29.136Z,0
2016-12-24T05:35:29.151Z,0
2016-12-24T05:36:14.250Z,0
2016-12-24T05:37:14.265Z,0
2016-12-24T05:38:14.282Z,0
2016-12-24T05:39:14.303Z,0
2016-12-24T05:40:29.235Z,0
2016-12-24T05:41:14.331Z,0
2016-12-24T05:42:29.276Z,0
2016-12-24T05:43:14.365Z,0
2016-12-24T05:44:29.328Z,0
2016-12-24T05:45:14.398Z,0
2016-12-24T05:46:14.416Z,0
2016-12-24T05:47:14.433Z,0
2016-12-24T05:48:14.448Z,0
2016-12-24T05:49:29.386Z,0
2016-12-24T05:50:14.483Z,0
2016-12-24T05:51:29.423Z,0
2016-12-24T05:52:14.515Z,0
2016-12-24T05:53:14.533Z,0
2016-12-24T05:54:14.549Z,0
2016-12-24T05:55:14.569Z,0
2016-12-24T05:56:14.582Z,0
2016-12-24T05:57:14.603Z,0
2016-12-24T05:58:14.614Z,0
2016-12-24T05:59:14.635Z,0
2016-12-24T06:00:29.568Z,0
2016-12-24T06:01:14.671Z,0
2016-12-24T06:02:14.683Z,0
2016-12-24T06:03:14.701Z,0
2016-12-24T06:04:14.717Z,0
2016-12-24T06:05:14.733Z,0
2016-12-24T06:06:14.850Z,0
2016-12-24T06:07:14.768Z,0
2016-12-24T06:08:14.784Z,0
2016-12-24T06:09:14.799Z,0
2016-12-24T06:10:14.818Z,0
2016-12-24T06:11:14.834Z,0
2016-12-24T06:12:15.164Z,0
2016-12-24T06:13:29.791Z,0
2016-12-24T06:14:14.888Z,0
2016-12-24T06:15:14.903Z,0
2016-12-24T06:16:29.834Z,0
2016-12-24T06:17:14.934Z,0
2016-12-24T06:18:14.954Z,0
2016-12-24T06:19:14.966Z,0
2016-12-24T06:20:14.984Z,0
2016-12-24T06:21:15.004Z,0
2016-12-24T06:22:15.020Z,0
2016-12-24T06:23:15.038Z,0
2016-12-24T06:24:29.976Z,0
2016-12-24T06:25:15.076Z,0
2016-12-24T06:26:15.085Z,0
2016-12-24T06:27:30.020Z,0
2016-12-24T06:28:15.120Z,0
2016-12-24T06:29:15.137Z,0
2016-12-24T06:31:15.168Z,0
2016-12-24T06:32:30.108Z,0
2016-12-24T06:33:15.202Z,0
2016-12-24T06:34:15.221Z,0
2016-12-24T06:35:15.234Z,0
2016-12-24T06:36:15.253Z,0
2016-12-24T06:37:15.296Z,0
2016-12-24T06:38:15.291Z,0
2016-12-24T06:39:30.221Z,0
2016-12-24T06:40:15.637Z,0
2016-12-24T06:41:30.253Z,0
2016-12-24T06:42:15.351Z,0
2016-12-24T06:43:15.372Z,0
2016-12-24T06:45:15.406Z,0
2016-12-24T06:46:15.420Z,0
2016-12-24T06:47:30.358Z,0
2016-12-24T06:48:15.456Z,0
2016-12-24T06:49:15.470Z,0
2016-12-24T06:50:15.489Z,0
2016-12-24T06:51:15.506Z,0
2016-12-24T06:52:15.522Z,4
2016-12-24T06:53:15.538Z,4
2016-12-24T06:54:15.554Z,4
2016-12-24T06:55:15.572Z,4
2016-12-24T06:56:15.591Z,4
2016-12-24T06:57:15.607Z,4
2016-12-24T06:58:30.542Z,4
2016-12-24T06:59:15.642Z,8
2016-12-24T07:00:30.573Z,8
2016-12-24T07:01:15.678Z,4
2016-12-24T07:02:15.690Z,4
2016-12-24T07:03:15.710Z,4
2016-12-24T07:04:15.721Z,8
2016-12-24T07:05:15.740Z,8
2016-12-24T07:06:15.784Z,4
2016-12-24T07:07:15.774Z,12
2016-12-24T07:08:15.794Z,8
2016-12-24T07:09:15.808Z,12
2016-12-24T07:10:30.744Z,12
2016-12-24T07:11:15.842Z,12
2016-12-24T07:12:15.860Z,12
2016-12-24T07:13:15.883Z,12
2016-12-24T07:16:15.931Z,28
2016-12-24T07:18:15.984Z,32
2016-12-24T07:19:30.898Z,48
2016-12-24T07:20:15.995Z,48
2016-12-24T07:21:16.012Z,36
2016-12-24T07:22:16.033Z,40
2016-12-24T07:23:16.046Z,52
2016-12-24T07:24:16.062Z,60
2016-12-24T07:25:16.082Z,64
2016-12-24T07:26:16.095Z,72
2016-12-24T07:27:16.113Z,76
2016-12-24T07:28:16.129Z,80
2016-12-24T07:29:16.148Z,92
2016-12-24T07:30:16.167Z,100
2016-12-24T07:31:16.182Z,96
2016-12-24T07:32:31.143Z,96
2016-12-24T07:34:16.237Z,100
2016-12-24T07:35:31.470Z,112
2016-12-24T07:36:16.266Z,128
2016-12-24T07:37:16.287Z,148
2016-12-24T07:38:16.304Z,164
2016-12-24T07:39:16.323Z,168
2016-12-24T07:40:16.334Z,160
2016-12-24T07:41:16.349Z,136
2016-12-24T07:42:31.287Z,120
2016-12-24T07:43:16.388Z,116
2016-12-24T07:44:16.402Z,112
2016-12-24T07:45:16.419Z,120
2016-12-24T07:46:31.360Z,124
2016-12-24T07:47:16.759Z,148
2016-12-24T07:48:16.471Z,168
2016-12-24T07:49:16.484Z,188
2016-12-24T07:50:16.506Z,200
2016-12-24T07:51:31.443Z,220
2016-12-24T07:52:16.538Z,200
2016-12-24T07:53:16.557Z,156
2016-12-24T07:54:16.877Z,144
2016-12-24T07:55:16.592Z,152
2016-12-24T07:56:16.605Z,156
2016-12-24T07:57:16.650Z,144
2016-12-24T07:58:16.639Z,132
2016-12-24T07:59:16.669Z,136
2016-12-24T08:00:16.675Z,172
2016-12-24T08:01:16.696Z,168
2016-12-24T08:03:31.652Z,164
2016-12-24T08:04:16.745Z,160
2016-12-24T08:06:16.780Z,156
2016-12-24T08:07:31.718Z,172
2016-12-24T08:08:16.811Z,184
2016-12-24T08:09:16.835Z,224
2016-12-24T08:10:17.148Z,196
2016-12-24T08:11:16.862Z,164
2016-12-24T08:12:16.881Z,144
2016-12-24T08:13:16.900Z,164
2016-12-24T08:14:16.914Z,220
2016-12-24T08:15:16.935Z,244
2016-12-24T08:16:16.951Z,220
2016-12-24T08:17:16.972Z,220
2016-12-24T08:18:31.906Z,208
2016-12-24T08:19:17.001Z,224
2016-12-24T08:20:17.023Z,252
2016-12-24T08:21:17.036Z,300
2016-12-24T08:22:31.974Z,308
2016-12-24T08:23:17.071Z,312
2016-12-24T08:24:17.090Z,412
2016-12-24T08:25:17.108Z,444
2016-12-24T08:26:17.128Z,496
2016-12-24T08:27:17.147Z,524
2016-12-24T08:28:17.172Z,528
2016-12-24T08:29:17.175Z,488
2016-12-24T08:30:17.200Z,492
2016-12-24T08:31:17.211Z,500
2016-12-24T08:32:17.248Z,460
2016-12-24T08:33:32.167Z,536
2016-12-24T08:34:17.266Z,600
2016-12-24T08:35:32.198Z,808
2016-12-24T08:36:17.301Z,904
2016-12-24T08:37:17.315Z,796
2016-12-24T08:38:17.334Z,556
2016-12-24T08:39:17.353Z,476
2016-12-24T08:40:17.367Z,504
2016-12-24T08:41:17.389Z,512
2016-12-24T08:42:17.401Z,492
2016-12-24T08:43:17.425Z,396
2016-12-24T08:44:32.357Z,328
2016-12-24T08:45:17.456Z,360
2016-12-24T08:46:17.474Z,536
2016-12-24T08:47:32.408Z,676
2016-12-24T08:48:17.509Z,808
2016-12-24T08:49:32.444Z,816
2016-12-24T08:50:17.540Z,1020
2016-12-24T08:51:17.561Z,1232
2016-12-24T08:53:17.797Z,1244
2016-12-24T08:54:32.531Z,1276
2016-12-24T08:55:17.632Z,1296
2016-12-24T08:56:17.651Z,1304
2016-12-24T08:57:17.668Z,1004
2016-12-24T08:58:17.680Z,952
2016-12-24T08:59:17.706Z,1352
2016-12-24T09:00:17.717Z,1656
2016-12-24T09:01:32.655Z,1748
2016-12-24T09:02:32.673Z,1684
2016-12-24T09:03:17.771Z,1504
2016-12-24T09:04:17.791Z,1176
2016-12-24T09:06:32.746Z,1256
2016-12-24T09:07:17.846Z,1404
2016-12-24T09:09:17.882Z,1472
2016-12-24T09:10:32.814Z,1420
2016-12-24T09:11:17.916Z,1492
2016-12-24T09:12:17.959Z,1240
2016-12-24T09:13:17.949Z,1192
2016-12-24T09:14:17.968Z,1000
2016-12-24T09:15:17.984Z,860
2016-12-24T09:16:18.002Z,904
2016-12-24T09:17:32.940Z,1408
2016-12-24T09:18:18.040Z,1756
2016-12-24T09:19:18.057Z,2172
2016-12-24T09:20:18.072Z,2316
2016-12-24T09:22:33.029Z,1792
2016-12-24T09:23:33.047Z,1448
2016-12-24T09:24:18.146Z,1628
2016-12-24T09:25:18.164Z,1748
2016-12-24T09:26:33.100Z,1132
2016-12-24T09:27:18.202Z,840
2016-12-24T09:28:18.217Z,892
2016-12-24T09:29:18.235Z,956
2016-12-24T09:30:18.255Z,1004
2016-12-24T09:31:18.272Z,1024
2016-12-24T09:32:18.288Z,1092
2016-12-24T09:33:33.226Z,1412
2016-12-24T09:34:33.244Z,1780
2016-12-24T09:35:18.349Z,1924
2016-12-24T09:36:33.281Z,1856
2016-12-24T09:37:18.379Z,1912
2016-12-24T09:39:18.799Z,1116
2016-12-24T09:40:18.434Z,1092
2016-12-24T09:41:18.766Z,1284
2016-12-24T09:42:33.391Z,1080
2016-12-24T09:43:18.488Z,1104
2016-12-24T09:44:18.508Z,1080
2016-12-24T09:45:18.524Z,908
2016-12-24T09:46:18.544Z,976
2016-12-24T09:47:18.561Z,928
2016-12-24T09:48:33.499Z,1128
2016-12-24T09:50:18.618Z,1124
2016-12-24T09:51:18.971Z,1228
2016-12-24T09:52:18.652Z,1304
2016-12-24T09:54:18.691Z,1340
2016-12-24T09:55:18.713Z,1420
2016-12-24T09:57:33.664Z,1368
2016-12-24T09:58:18.762Z,1452
2016-12-24T09:59:18.778Z,1500
2016-12-24T10:00:18.800Z,1508
2016-12-24T10:01:18.820Z,1472
2016-12-24T10:02:18.836Z,1468
2016-12-24T10:03:18.850Z,1548
2016-12-24T10:05:18.887Z,1688
2016-12-24T10:06:18.933Z,1708
2016-12-24T10:07:33.842Z,1720
2016-12-24T10:08:18.942Z,1692
2016-12-24T10:10:33.904Z,1656
2016-12-24T10:12:19.018Z,1608
2016-12-24T10:13:19.035Z,1636
2016-12-24T10:14:19.055Z,1668
2016-12-24T10:15:19.071Z,1676
2016-12-24T10:16:19.118Z,1596
2016-12-24T10:17:19.106Z,1440
2016-12-24T10:18:19.125Z,1444
2016-12-24T10:19:19.145Z,1528
2016-12-24T10:20:19.160Z,1728
2016-12-24T10:21:34.099Z,1848
2016-12-24T10:22:34.117Z,1864
2016-12-24T10:24:34.156Z,1744
2016-12-24T10:25:19.865Z,1700
2016-12-24T10:26:19.584Z,1664
2016-12-24T10:27:19.298Z,1612
2016-12-24T10:28:19.310Z,1608
2016-12-24T10:29:34.345Z,1684
2016-12-24T10:30:19.345Z,1756
2016-12-24T10:31:19.363Z,1784
2016-12-24T10:32:19.382Z,1748
2016-12-24T10:33:19.402Z,1776
2016-12-24T10:35:19.437Z,1760
2016-12-24T10:36:34.375Z,1332
2016-12-24T10:37:19.478Z,1256
2016-12-24T10:38:19.493Z,1300
2016-12-24T10:39:19.516Z,1372
2016-12-24T10:40:19.528Z,1556
2016-12-24T10:41:19.554Z,1748
2016-12-24T10:42:34.486Z,1952
2016-12-24T10:43:34.806Z,2088
2016-12-24T10:44:19.602Z,2140
2016-12-24T10:45:34.546Z,2136
2016-12-24T10:46:19.643Z,2088
2016-12-24T10:47:19.659Z,2100
2016-12-24T10:48:19.679Z,2136
2016-12-24T10:49:19.698Z,2128
2016-12-24T10:50:19.719Z,2120
2016-12-24T10:51:19.732Z,2108
2016-12-24T10:52:19.756Z,2136
2016-12-24T10:53:20.079Z,2160
2016-12-24T10:54:19.789Z,2160
2016-12-24T10:55:19.809Z,2128
2016-12-24T10:56:34.746Z,2000
2016-12-24T10:58:34.781Z,2200
2016-12-24T10:59:19.885Z,2240
2016-12-24T11:00:19.899Z,2244
2016-12-24T11:01:34.839Z,2156
2016-12-24T11:02:19.936Z,2180
2016-12-24T11:03:19.958Z,2216
2016-12-24T11:04:19.977Z,2172
2016-12-24T11:05:19.993Z,2104
2016-12-24T11:06:20.012Z,2384
2016-12-24T11:07:20.033Z,2644
2016-12-24T11:08:20.050Z,2752
2016-12-24T11:09:34.993Z,2724
2016-12-24T11:10:20.087Z,2524
2016-12-24T11:11:20.107Z,2012
2016-12-24T11:12:20.144Z,1724
2016-12-24T11:13:35.066Z,1392
2016-12-24T11:14:20.189Z,1388
2016-12-24T11:15:20.182Z,1476
2016-12-24T11:16:20.201Z,1472
2016-12-24T11:17:35.137Z,1424
2016-12-24T11:18:20.242Z,1336
2016-12-24T11:19:20.256Z,1256
2016-12-24T11:20:20.277Z,1500
2016-12-24T11:21:20.294Z,1732
2016-12-24T11:22:20.315Z,2096
2016-12-24T11:23:35.252Z,2468
2016-12-24T11:24:20.350Z,2632
2016-12-24T11:26:20.391Z,2276
2016-12-24T11:27:20.404Z,1536
2016-12-24T11:28:20.426Z,1132
2016-12-24T11:29:35.370Z,768
2016-12-24T11:30:20.463Z,712
2016-12-24T11:32:35.424Z,584
2016-12-24T11:33:20.524Z,524
2016-12-24T11:34:20.540Z,552
2016-12-24T11:35:20.561Z,656
2016-12-24T11:36:20.606Z,640
2016-12-24T11:37:35.518Z,700
2016-12-24T11:38:20.616Z,748
2016-12-24T11:39:20.633Z,756
2016-12-24T11:40:20.659Z,864
2016-12-24T11:41:35.589Z,1256
2016-12-24T11:42:35.623Z,1512
2016-12-24T11:43:35.629Z,1816
2016-12-24T11:44:35.647Z,1816
2016-12-24T11:46:20.765Z,2100
2016-12-24T11:47:20.784Z,2172
2016-12-24T11:48:20.804Z,2520
2016-12-24T11:49:20.826Z,2656
2016-12-24T11:50:20.843Z,2572
2016-12-24T11:51:20.859Z,2332
2016-12-24T11:52:20.875Z,1880
2016-12-24T11:53:20.899Z,1780
2016-12-24T11:54:20.916Z,1772
2016-12-24T11:55:20.938Z,1876
2016-12-24T11:56:35.871Z,1768
2016-12-24T11:57:20.976Z,1708
2016-12-24T11:58:20.994Z,1832
2016-12-24T11:59:35.929Z,1904
2016-12-24T12:01:21.052Z,1844
2016-12-24T12:02:21.086Z,1708
2016-12-24T12:03:21.085Z,1684
2016-12-24T12:04:36.024Z,1720
2016-12-24T12:05:21.123Z,1764
2016-12-24T12:06:21.144Z,1732
2016-12-24T12:07:21.159Z,1756
2016-12-24T12:08:21.182Z,1816
2016-12-24T12:09:21.236Z,1820
2016-12-24T12:10:21.215Z,1740
2016-12-24T12:11:21.248Z,1620
2016-12-24T12:12:21.455Z,1612
2016-12-24T12:13:21.577Z,1668
2016-12-24T12:14:21.291Z,1736
2016-12-24T12:17:21.354Z,2096
2016-12-24T12:19:21.386Z,2320
2016-12-24T12:20:36.323Z,2420
2016-12-24T12:21:21.428Z,2460
2016-12-24T12:22:21.443Z,2456
2016-12-24T12:23:21.464Z,2308
2016-12-24T12:24:21.481Z,1996
2016-12-24T12:25:21.500Z,1864
2016-12-24T12:26:21.522Z,1700
2016-12-24T12:28:21.568Z,1828
2016-12-24T12:30:21.593Z,1688
2016-12-24T12:31:21.639Z,1480
2016-12-24T12:32:36.851Z,1448
2016-12-24T12:33:21.675Z,1552
2016-12-24T12:34:21.678Z,1724
2016-12-24T12:35:21.696Z,1796
2016-12-24T12:36:36.627Z,1712
2016-12-24T12:37:21.745Z,1720
2016-12-24T12:38:21.751Z,1760
2016-12-24T12:39:21.767Z,1896
2016-12-24T12:40:21.788Z,1956
2016-12-24T12:41:21.812Z,1896
2016-12-24T12:42:21.826Z,1884
2016-12-24T12:43:21.858Z,1920
2016-12-24T12:45:21.881Z,1968
2016-12-24T12:46:36.820Z,2052
2016-12-24T12:47:21.920Z,2092
2016-12-24T12:48:21.940Z,2100
2016-12-24T12:50:21.979Z,2052
2016-12-24T12:51:21.996Z,2000
2016-12-24T12:52:36.933Z,1956
2016-12-24T12:53:22.338Z,1976
2016-12-24T12:55:22.072Z,2216
2016-12-24T12:56:22.100Z,2376
2016-12-24T12:57:22.146Z,2484
2016-12-24T12:58:37.049Z,2588
2016-12-24T12:59:22.179Z,2652
2016-12-24T13:00:37.086Z,2680
2016-12-24T13:01:22.197Z,2636
2016-12-24T13:02:22.211Z,2480
2016-12-24T13:03:22.228Z,2264
2016-12-24T13:04:22.244Z,2032
2016-12-24T13:05:22.268Z,1824
2016-12-24T13:06:22.313Z,1660
2016-12-24T13:07:37.226Z,1548
2016-12-24T13:08:22.325Z,1512
2016-12-24T13:09:22.342Z,1512
2016-12-24T13:10:22.362Z,1552
2016-12-24T13:11:22.383Z,1600
2016-12-24T13:12:37.321Z,1668
2016-12-24T13:13:22.728Z,1684
2016-12-24T13:14:22.437Z,1668
2016-12-24T13:15:22.462Z,1636
2016-12-24T13:16:22.778Z,1608
2016-12-24T13:18:37.436Z,1576
2016-12-24T13:19:22.537Z,1584
2016-12-24T13:20:22.556Z,1608
2016-12-24T13:21:22.572Z,1640
2016-12-24T13:22:22.620Z,1592
2016-12-24T13:23:22.615Z,1452
2016-12-24T13:24:22.637Z,1216
2016-12-24T13:25:22.653Z,1260
2016-12-24T13:26:22.669Z,1260
2016-12-24T13:27:22.689Z,1208
2016-12-24T13:28:23.009Z,1168
2016-12-24T13:29:22.728Z,1108
2016-12-24T13:30:22.749Z,1020
2016-12-24T13:31:22.768Z,920
2016-12-24T13:32:22.783Z,892
2016-12-24T13:33:22.806Z,876
2016-12-24T13:34:22.825Z,856
2016-12-24T13:35:37.761Z,828
2016-12-24T13:36:22.872Z,784
2016-12-24T13:37:22.887Z,780
2016-12-24T13:38:22.901Z,804
2016-12-24T13:39:37.837Z,796
2016-12-24T13:40:22.937Z,780
2016-12-24T13:41:22.959Z,740
2016-12-24T13:42:22.975Z,696
2016-12-24T13:43:22.996Z,652
2016-12-24T13:44:23.017Z,584
2016-12-24T13:45:23.037Z,512
2016-12-24T13:46:23.081Z,468
2016-12-24T13:47:23.070Z,400
2016-12-24T13:48:23.100Z,340
2016-12-24T13:49:23.113Z,296
2016-12-24T13:50:23.133Z,284
2016-12-24T13:51:23.150Z,276
2016-12-24T13:52:23.171Z,292
2016-12-24T13:54:23.205Z,272
2016-12-24T13:55:38.147Z,316
2016-12-24T13:56:23.247Z,356
2016-12-24T13:57:23.267Z,408
2016-12-24T13:58:23.587Z,432
2016-12-24T13:59:23.303Z,400
2016-12-24T14:00:23.322Z,360
2016-12-24T14:01:23.339Z,412
2016-12-24T14:02:23.359Z,452
2016-12-24T14:04:23.396Z,380
2016-12-24T14:05:23.415Z,360
2016-12-24T14:06:23.435Z,348
2016-12-24T14:07:23.455Z,316
2016-12-24T14:08:23.474Z,280
2016-12-24T14:09:23.496Z,252
2016-12-24T14:10:23.513Z,240
2016-12-24T14:11:38.448Z,220
2016-12-24T14:12:23.556Z,196
2016-12-24T14:13:23.573Z,216
2016-12-24T14:14:23.589Z,220
2016-12-24T14:15:23.611Z,216
2016-12-24T14:16:23.631Z,224
2016-12-24T14:17:38.564Z,200
2016-12-24T14:18:23.667Z,200
2016-12-24T14:19:38.601Z,188
2016-12-24T14:20:38.619Z,176
2016-12-24T14:21:23.729Z,192
2016-12-24T14:22:23.738Z,224
2016-12-24T14:23:38.677Z,244
2016-12-24T14:25:23.799Z,240
2016-12-24T14:26:23.816Z,236
2016-12-24T14:27:38.756Z,220
2016-12-24T14:28:23.852Z,200
2016-12-24T14:29:23.880Z,208
2016-12-24T14:30:23.891Z,208
2016-12-24T14:31:23.914Z,192
2016-12-24T14:32:23.930Z,184
2016-12-24T14:33:38.868Z,176
2016-12-24T14:34:23.968Z,160
2016-12-24T14:35:38.904Z,148
2016-12-24T14:36:24.028Z,152
2016-12-24T14:37:24.031Z,152
2016-12-24T14:40:24.083Z,136
2016-12-24T14:41:24.404Z,132
2016-12-24T14:42:39.043Z,128
2016-12-24T14:43:39.063Z,120
2016-12-24T14:44:24.160Z,116
2016-12-24T14:45:24.180Z,112
2016-12-24T14:46:24.195Z,108
2016-12-24T14:47:39.136Z,100
2016-12-24T14:49:24.250Z,96
2016-12-24T14:50:39.188Z,92
2016-12-24T14:52:24.316Z,88
2016-12-24T14:53:24.327Z,84
2016-12-24T14:54:24.369Z,80
2016-12-24T14:55:24.365Z,76
2016-12-24T14:56:24.407Z,72
2016-12-24T14:57:24.407Z,64
2016-12-24T14:58:24.729Z,60
2016-12-24T14:59:24.447Z,56
2016-12-24T15:00:24.464Z,52
2016-12-24T15:01:24.478Z,48
2016-12-24T15:02:24.497Z,44
2016-12-24T15:03:24.515Z,40
2016-12-24T15:04:24.533Z,32